Time;durP1;ratioP1;P1;durP2;ratioP2;P2;SDS_P1;SDS_P2;PMS_P1;PMS_P2;Temp;Humidity;BMP_temperature;BMP_pressure;BME280_temperature;BME280_humidity;BME280_pressure;Samples;Min_cycle;Max_cycle;Signal;HPM_P1;HPM_P2
2023/05/26 00:03:01;;;;;;;9.30;4.53;;;;;;;14.17;47.82;100586.88;10310825;28;20611;-68
2023/05/26 00:08:03;;;;;;;7.43;4.17;;;;;;;14.69;47.04;100581.41;10309703;28;20397;-68
2023/05/26 00:13:05;;;;;;;5.77;4.87;;;;;;;13.51;49.25;100581.41;10314197;28;20661;-68
2023/05/26 00:18:07;;;;;;;9.53;4.63;;;;;;;14.27;48.69;100597.31;10312542;28;20234;-68
2023/05/26 00:23:09;;;;;;;6.93;4.33;;;;;;;14.59;47.66;100592.50;10305329;28;20281;-68
2023/05/26 00:28:10;;;;;;;6.83;4.43;;;;;;;13.57;49.61;100599.50;10316759;28;20576;-68
2023/05/26 00:33:12;;;;;;;7.67;4.50;;;;;;;14.26;48.13;100614.50;10305843;28;20770;-68
2023/05/26 00:38:14;;;;;;;8.23;4.67;;;;;;;14.11;48.63;100617.22;10314962;28;20222;-68
2023/05/26 00:43:16;;;;;;;8.27;5.10;;;;;;;15.27;47.02;100619.91;10317875;28;21000;-68
2023/05/26 00:48:17;;;;;;;8.13;4.93;;;;;;;13.69;48.40;100621.38;10311721;28;20242;-68
2023/05/26 00:53:19;;;;;;;7.07;4.97;;;;;;;14.10;48.48;100634.38;10317562;28;20222;-68
2023/05/26 00:58:21;;;;;;;8.33;5.27;;;;;;;13.51;48.20;100604.78;10304463;28;20213;-68
2023/05/26 01:03:23;;;;;;;9.27;4.73;;;;;;;14.37;48.13;100621.25;10308587;28;20596;-68
2023/05/26 01:08:25;;;;;;;6.23;4.63;;;;;;;13.02;49.75;100585.38;10307484;28;20226;-68
2023/05/26 01:13:32;;;;;;;7.73;4.90;;;;;;;13.97;48.29;100615.34;10298113;28;20226;-68
2023/05/26 01:18:52;;;;;;;8.20;4.87;;;;;;;13.59;48.97;100627.03;10309504;28;20206;-68
2023/05/26 01:24:11;;;;;;;8.57;4.97;;;;;;;14.12;48.04;100629.69;10304813;28;20285;-68
2023/05/26 01:29:15;;;;;;;12.17;5.40;;;;;;;13.47;48.82;100615.88;10307421;28;20792;-68
2023/05/26 01:34:17;;;;;;;7.77;5.47;;;;;;;13.89;48.61;100627.06;10300855;28;20254;-68
2023/05/26 01:39:19;;;;;;;7.97;5.53;;;;;;;13.95;48.43;100618.25;10298428;28;20243;-68
2023/05/26 01:44:27;;;;;;;8.10;5.40;;;;;;;14.52;47.83;100611.28;10318295;28;20250;-67
2023/05/26 01:49:31;;;;;;;10.30;5.37;;;;;;;12.82;49.51;100571.63;10307417;28;20748;-67
2023/05/26 01:54:37;;;;;;;7.30;5.37;;;;;;;14.82;47.16;100632.75;10318806;28;20232;-68
2023/05/26 01:59:39;;;;;;;9.43;5.33;;;;;;;12.41;49.32;100538.81;10315580;28;20253;-68
2023/05/26 02:04:41;;;;;;;7.37;5.53;;;;;;;14.55;47.49;100634.31;10318027;28;20321;-68
2023/05/26 02:09:43;;;;;;;10.00;5.57;;;;;;;12.84;49.95;100617.06;10312215;28;20269;-68
2023/05/26 02:14:44;;;;;;;8.77;5.30;;;;;;;13.77;48.89;100628.53;10314768;28;20287;-68
2023/05/26 02:19:48;;;;;;;9.90;5.27;;;;;;;13.48;48.24;100649.84;10308140;28;20335;-68
2023/05/26 02:24:49;;;;;;;8.57;5.53;;;;;;;13.79;48.48;100645.31;10313862;28;20253;-68
2023/05/26 02:29:51;;;;;;;8.03;5.90;;;;;;;13.80;48.36;100650.53;10304394;28;20245;-68
2023/05/26 02:34:53;;;;;;;7.90;6.00;;;;;;;14.16;47.23;100660.56;10315243;28;20237;-68
2023/05/26 02:39:55;;;;;;;7.37;5.47;;;;;;;14.46;47.03;100649.75;10310484;28;20230;-68
2023/05/26 02:44:56;;;;;;;7.67;6.07;;;;;;;13.03;49.60;100650.69;10315676;28;20292;-68
2023/05/26 02:49:58;;;;;;;9.00;5.67;;;;;;;13.45;48.49;100652.88;10315042;28;20230;-68
2023/05/26 02:55:00;;;;;;;8.30;6.07;;;;;;;13.83;48.50;100655.53;10311912;28;20249;-68
2023/05/26 03:00:02;;;;;;;8.53;5.43;;;;;;;15.13;46.25;100680.97;10313845;28;20241;-68
2023/05/26 03:05:08;;;;;;;7.67;5.70;;;;;;;13.46;48.41;100661.78;10325593;28;20308;-68
2023/05/26 03:10:10;;;;;;;10.03;5.97;;;;;;;13.81;47.58;100649.47;10313693;28;20767;-68
2023/05/26 03:15:11;;;;;;;8.13;5.93;;;;;;;14.12;47.76;100650.34;10315708;28;20300;-68
2023/05/26 03:20:13;;;;;;;9.67;6.03;;;;;;;12.63;50.16;100618.56;10309724;28;20272;-68
2023/05/26 03:25:15;;;;;;;8.10;6.20;;;;;;;13.54;48.73;100655.50;10309543;28;20225;-68
2023/05/26 03:30:17;;;;;;;10.27;6.00;;;;;;;13.67;48.19;100642.25;10307318;28;20233;-68
2023/05/26 03:35:18;;;;;;;9.63;6.43;;;;;;;11.69;50.85;100538.00;10312623;28;20226;-68
2023/05/26 03:40:20;;;;;;;10.77;6.50;;;;;;;12.32;51.27;100627.44;10315419;28;20853;-68
2023/05/26 03:45:22;;;;;;;10.73;5.83;;;;;;;12.86;50.38;100649.97;10314023;28;20229;-67
2023/05/26 03:50:23;;;;;;;10.60;6.00;;;;;;;12.76;49.93;100638.66;10306954;28;20222;-68
2023/05/26 03:55:25;;;;;;;10.07;6.77;;;;;;;12.93;49.95;100656.31;10323956;28;20235;-68
2023/05/26 04:00:28;;;;;;;9.07;6.53;;;;;;;13.37;49.34;100655.66;10313542;28;20296;-68
2023/05/26 04:05:30;;;;;;;11.53;5.90;;;;;;;13.66;48.56;100670.97;10312095;28;20642;-68
2023/05/26 04:10:32;;;;;;;11.07;6.63;;;;;;;12.92;49.94;100676.97;10314260;28;20234;-67
2023/05/26 04:15:33;;;;;;;9.37;6.10;;;;;;;13.21;49.23;100672.72;10323971;28;20236;-68
2023/05/26 04:20:35;;;;;;;11.63;6.83;;;;;;;13.33;49.41;100673.16;10318471;28;20280;-70
2023/05/26 04:25:37;;;;;;;7.20;5.60;;;;;;;12.41;50.12;100665.81;10328228;28;20845;-67
2023/05/26 04:30:39;;;;;;;8.60;6.00;;;;;;;13.26;49.23;100685.59;10323515;28;20308;-67
2023/05/26 04:35:44;;;;;;;8.53;5.63;;;;;;;12.91;49.83;100688.72;10314554;28;20804;-68
2023/05/26 04:40:46;;;;;;;8.70;6.70;;;;;;;12.50;51.23;100697.00;10323790;28;20985;-70
2023/05/26 04:45:48;;;;;;;9.93;6.47;;;;;;;13.38;50.30;100702.16;10316388;28;20234;-68
2023/05/26 04:50:53;;;;;;;11.40;6.73;;;;;;;12.62;50.74;100696.59;10317099;28;20269;-67
2023/05/26 04:55:56;;;;;;;8.23;6.10;;;;;;;14.70;47.50;100734.78;10311688;28;20304;-68
2023/05/26 05:00:58;;;;;;;8.57;5.67;;;;;;;13.27;49.25;100698.88;10309912;28;20256;-68
2023/05/26 05:06:01;;;;;;;9.03;5.77;;;;;;;13.56;49.03;100708.06;10315182;28;20230;-67
2023/05/26 05:11:04;;;;;;;9.13;6.30;;;;;;;14.25;48.55;100743.91;10309340;28;20326;-70
2023/05/26 05:16:06;;;;;;;10.43;6.47;;;;;;;13.42;49.58;100741.97;10303385;28;20276;-67
2023/05/26 05:21:08;;;;;;;10.80;6.17;;;;;;;13.69;49.66;100722.75;10269477;28;20324;-70
2023/05/26 05:26:10;;;;;;;8.70;5.97;;;;;;;13.95;49.17;100717.81;10297912;28;20241;-68
2023/05/26 05:31:12;;;;;;;7.67;5.77;;;;;;;13.93;49.51;100727.88;10296938;28;20979;-68
2023/05/26 05:36:13;;;;;;;9.07;5.83;;;;;;;13.60;49.56;100727.38;10298264;28;20230;-67
2023/05/26 05:41:16;;;;;;;8.13;5.73;;;;;;;14.06;48.94;100721.91;10300977;28;20234;-67
2023/05/26 05:46:17;;;;;;;9.00;6.70;;;;;;;14.02;48.64;100731.34;10299931;28;20225;-67
2023/05/26 05:51:19;;;;;;;11.60;6.40;;;;;;;13.66;49.36;100740.91;10294678;28;20801;-68
2023/05/26 05:56:21;;;;;;;11.20;6.27;;;;;;;12.87;50.17;100718.78;10297754;28;20249;-65
2023/05/26 06:01:22;;;;;;;8.90;6.07;;;;;;;13.78;49.78;100748.56;10299075;28;20249;-66
2023/05/26 06:06:24;;;;;;;9.37;5.87;;;;;;;14.57;48.18;100748.91;10292272;28;20239;-65
2023/05/26 06:11:26;;;;;;;7.87;5.57;;;;;;;15.25;47.52;100766.69;10289062;28;20233;-66
2023/05/26 06:16:27;;;;;;;7.50;5.43;;;;;;;14.25;48.72;100760.06;10292635;28;20233;-66
2023/05/26 06:21:29;;;;;;;9.17;6.40;;;;;;;15.07;48.44;100754.50;10293355;28;20226;-67
2023/05/26 06:26:31;;;;;;;12.73;6.90;;;;;;;14.52;48.39;100737.03;10293504;28;20222;-66
2023/05/26 06:31:33;;;;;;;8.13;5.50;;;;;;;15.06;47.94;100742.03;10290227;28;20720;-66
2023/05/26 06:36:35;;;;;;;9.07;5.37;;;;;;;14.72;48.64;100716.56;10293129;28;20313;-67
2023/05/26 06:41:37;;;;;;;9.13;5.93;;;;;;;15.01;47.49;100724.78;10294887;28;20669;-66
2023/05/26 06:46:39;;;;;;;10.53;6.00;;;;;;;15.73;46.59;100721.13;10293788;28;20262;-65
2023/05/26 06:51:41;;;;;;;10.07;6.17;;;;;;;15.25;47.40;100710.94;10288918;28;20230;-65
2023/05/26 06:56:42;;;;;;;10.00;6.37;;;;;;;16.03;46.49;100739.81;10289035;28;20230;-65
2023/05/26 07:01:44;;;;;;;8.80;6.50;;;;;;;14.41;47.85;100700.66;10292519;28;20238;-65
2023/05/26 07:06:46;;;;;;;9.27;5.90;;;;;;;15.17;48.00;100708.38;10291285;28;20253;-65
2023/05/26 07:11:49;;;;;;;7.47;5.73;;;;;;;14.61;48.23;100719.75;10286157;28;20242;-65
2023/05/26 07:16:50;;;;;;;9.67;7.00;;;;;;;15.59;47.76;100706.69;10294225;28;20226;-65
2023/05/26 07:21:52;;;;;;;11.07;6.13;;;;;;;14.78;48.84;100740.06;10306230;28;20660;-65
2023/05/26 07:26:54;;;;;;;11.53;6.63;;;;;;;16.16;47.01;100725.53;10301960;28;20823;-66
2023/05/26 07:31:56;;;;;;;11.00;5.93;;;;;;;16.15;46.61;100689.63;10301243;28;20240;-65
2023/05/26 07:36:58;;;;;;;8.40;6.03;;;;;;;16.69;45.97;100706.09;10301061;28;20225;-65
2023/05/26 07:42:00;;;;;;;9.77;7.00;;;;;;;16.09;46.50;100685.00;10300482;28;20754;-65
2023/05/26 07:47:02;;;;;;;10.90;5.87;;;;;;;16.41;46.15;100688.09;10304105;28;20603;-65
2023/05/26 07:52:03;;;;;;;9.33;6.17;;;;;;;16.71;45.63;100650.78;10298531;28;20253;-65
2023/05/26 07:57:05;;;;;;;9.17;5.93;;;;;;;17.08;45.20;100664.00;10300719;28;20392;-69
2023/05/26 08:02:19;;;;;;;11.83;6.30;;;;;;;17.91;44.22;100674.38;10299878;28;20257;-65
2023/05/26 08:07:21;;;;;;;11.23;6.40;;;;;;;17.17;45.15;100630.28;10305451;28;20230;-65
2023/05/26 08:12:23;;;;;;;8.90;6.23;;;;;;;16.03;45.96;100651.56;10305506;28;20238;-65
2023/05/26 08:17:25;;;;;;;9.57;6.13;;;;;;;16.95;45.80;100662.91;10301485;28;20978;-65
2023/05/26 08:22:27;;;;;;;11.37;6.60;;;;;;;17.79;44.47;100627.34;10303635;28;20342;-66
2023/05/26 08:27:28;;;;;;;8.90;5.93;;;;;;;17.68;44.98;100597.19;10305671;28;20236;-65
2023/05/26 08:32:30;;;;;;;11.60;7.00;;;;;;;17.42;45.34;100606.13;10305946;28;20324;-66
2023/05/26 08:37:32;;;;;;;11.40;6.30;;;;;;;17.08;45.22;100631.53;10304265;28;20249;-65
2023/05/26 08:42:41;;;;;;;9.77;6.20;;;;;;;17.43;44.94;100618.63;10300417;28;20652;-65
2023/05/26 08:48:33;;;;;;;8.80;6.10;;;;;;;18.76;43.68;100627.31;10304068;28;20292;-66
2023/05/26 08:53:36;;;;;;;10.00;6.17;;;;;;;18.93;43.61;100589.69;10301781;28;20244;-66
2023/05/26 08:58:38;;;;;;;8.80;6.30;;;;;;;18.19;43.70;100610.97;10298595;28;20212;-68
2023/05/26 09:03:40;;;;;;;8.90;5.93;;;;;;;19.42;42.10;100587.16;10303105;28;20257;-66
2023/05/26 09:08:42;;;;;;;10.95;5.95;;;;;;;19.80;42.16;100578.84;10308839;28;20240;-66
2023/05/26 09:13:44;;;;;;;10.05;5.75;;;;;;;19.57;42.97;100572.22;10299507;28;20262;-66
2023/05/26 09:18:46;;;;;;;9.65;5.78;;;;;;;19.18;42.88;100570.69;10257348;28;20655;-65
2023/05/26 09:23:57;;;;;;;12.50;6.40;;;;;;;17.28;44.10;100583.69;10257773;28;20253;-65
2023/05/26 09:29:01;;;;;;;9.48;5.95;;;;;;;18.57;43.20;100583.88;10261766;28;21214;-66
2023/05/26 09:34:02;;;;;;;9.25;5.75;;;;;;;18.41;43.71;100574.41;10265950;28;20774;-66
2023/05/26 09:39:09;;;;;;;9.88;6.72;;;;;;;18.08;44.04;100604.31;10295110;28;20237;-66
2023/05/26 09:44:16;;;;;;;10.60;6.68;;;;;;;18.29;44.55;100584.28;10297901;28;20834;-66
2023/05/26 09:49:18;;;;;;;9.90;6.15;;;;;;;19.94;42.80;100557.81;10294831;28;20248;-66
2023/05/26 09:54:21;;;;;;;7.85;5.90;;;;;;;19.67;41.80;100503.84;10300119;28;20347;-65
2023/05/26 09:59:31;;;;;;;8.52;6.15;;;;;;;20.03;41.72;100523.00;10296202;28;20232;-66
2023/05/26 10:04:33;;;;;;;10.30;7.28;;;;;;;18.58;42.42;100527.81;10301324;28;20238;-65
2023/05/26 10:09:37;;;;;;;9.32;5.90;;;;;;;20.54;41.57;100529.00;10305167;28;20316;-66
2023/05/26 10:14:39;;;;;;;8.80;5.57;;;;;;;20.37;41.38;100518.78;10301867;28;20505;-66
2023/05/26 10:19:41;;;;;;;9.85;6.28;;;;;;;19.34;42.58;100532.16;10295172;28;20238;-66
2023/05/26 10:24:50;;;;;;;12.93;5.88;;;;;;;20.05;41.57;100508.13;10300460;28;20260;-65
2023/05/26 10:30:05;;;;;;;10.43;6.60;;;;;;;18.53;41.84;100511.38;10298596;28;20338;-66
2023/05/26 10:35:22;;;;;;;9.02;5.43;;;;;;;20.31;40.41;100443.59;10297391;28;20799;-66
2023/05/26 10:40:29;;;;;;;8.98;6.15;;;;;;;19.08;40.93;100498.00;10298006;28;20656;-65
2023/05/26 10:45:32;;;;;;;10.95;5.80;;;;;;;20.01;40.49;100484.38;10297359;28;20230;-66
2023/05/26 10:50:59;;;;;;;8.65;5.53;;;;;;;20.60;39.96;100463.63;10297033;28;20617;-66
2023/05/26 10:56:03;;;;;;;9.77;5.65;;;;;;;20.99;38.80;100466.72;10296815;28;20238;-66
2023/05/26 11:06:50;;;;;;;6.70;5.00;;;;;;;18.46;42.07;100519.56;10352952;27;20842;-68
2023/05/26 11:12:01;;;;;;;8.93;5.38;;;;;;;19.24;41.19;100523.69;10253275;28;20297;-67
2023/05/26 11:17:04;;;;;;;8.45;5.43;;;;;;;18.06;40.74;100507.03;10278439;28;20253;-68
2023/05/26 11:22:10;;;;;;;11.93;6.00;;;;;;;19.49;41.40;100491.06;10268018;28;20258;-65
2023/05/26 11:27:12;;;;;;;9.38;4.60;;;;;;;19.94;39.22;100444.56;10261794;28;20230;-66
2023/05/26 11:32:13;;;;;;;7.63;4.85;;;;;;;19.72;41.10;100505.84;10278441;28;20234;-66
2023/05/26 11:37:15;;;;;;;8.52;4.60;;;;;;;19.64;39.55;100496.16;10268274;28;20826;-66
2023/05/26 11:42:17;;;;;;;8.80;5.63;;;;;;;19.51;40.21;100493.56;10275506;28;20226;-66
2023/05/26 11:47:24;;;;;;;6.65;4.75;;;;;;;20.17;40.12;100415.00;10285371;28;20266;-66
2023/05/26 11:52:26;;;;;;;7.47;4.40;;;;;;;20.43;40.19;100446.34;10288683;28;20234;-66
2023/05/26 11:57:30;;;;;;;8.40;5.10;;;;;;;21.19;39.17;100443.78;10267224;28;20347;-66
2023/05/26 12:02:33;;;;;;;6.78;4.90;;;;;;;19.74;38.69;100431.28;10277624;28;20238;-66
2023/05/26 12:07:36;;;;;;;9.07;5.60;;;;;;;20.76;38.82;100448.50;10266771;28;20231;-66
2023/05/26 12:12:49;;;;;;;8.35;5.18;;;;;;;20.19;39.15;100404.72;10286076;28;20231;-66
2023/05/26 12:17:52;;;;;;;6.28;4.55;;;;;;;21.39;38.44;100391.66;10239737;28;20858;-66
2023/05/26 12:23:01;;;;;;;6.53;5.07;;;;;;;21.60;37.71;100392.88;10255269;28;20245;-68
2023/05/26 12:28:03;;;;;;;8.10;4.40;;;;;;;21.60;37.52;100387.44;10261031;28;20876;-66
2023/05/26 12:33:04;;;;;;;7.45;4.35;;;;;;;21.07;37.64;100377.66;10234945;28;20265;-66
2023/05/26 12:38:06;;;;;;;6.38;4.57;;;;;;;21.39;37.25;100397.94;10258518;28;20289;-66
2023/05/26 12:43:08;;;;;;;8.80;5.00;;;;;;;21.39;37.22;100384.34;10261413;28;20235;-65
2023/05/26 12:48:10;;;;;;;7.35;4.97;;;;;;;20.90;37.11;100400.13;10263863;28;20741;-66
2023/05/26 12:53:12;;;;;;;9.68;5.03;;;;;;;21.42;36.76;100321.25;10285053;28;20242;-66
2023/05/26 12:58:13;;;;;;;6.85;4.60;;;;;;;21.54;37.54;100320.34;10234544;28;20245;-66
2023/05/26 13:03:17;;;;;;;6.57;4.40;;;;;;;20.82;37.36;100346.16;10234907;28;20267;-66
2023/05/26 13:08:19;;;;;;;13.63;5.20;;;;;;;20.98;37.28;100331.78;10235493;28;20261;-65
2023/05/26 13:13:21;;;;;;;7.93;4.03;;;;;;;21.11;36.92;100371.50;10284483;28;20349;-66
2023/05/26 13:18:23;;;;;;;8.45;4.95;;;;;;;22.02;36.73;100326.34;10263266;28;20241;-65
2023/05/26 13:23:25;;;;;;;6.22;4.07;;;;;;;21.84;35.78;100271.00;10235657;28;20235;-66
2023/05/26 13:28:27;;;;;;;5.85;4.25;;;;;;;22.13;35.57;100290.84;10236351;28;20204;-66
2023/05/26 13:33:29;;;;;;;4.70;4.20;;;;;;;22.28;35.46;100328.38;10238823;28;20326;-66
2023/05/26 13:38:30;;;;;;;4.72;4.22;;;;;;;22.90;34.37;100272.75;10257697;28;20234;-66
2023/05/26 13:43:33;;;;;;;7.68;4.85;;;;;;;22.43;35.92;100295.06;10228898;28;20302;-66
2023/05/26 13:48:35;;;;;;;6.82;4.60;;;;;;;21.73;36.45;100280.09;10252379;28;20235;-66
2023/05/26 13:53:37;;;;;;;7.75;4.72;;;;;;;21.63;36.73;100252.69;10232648;28;20251;-66
2023/05/26 13:58:39;;;;;;;6.80;4.57;;;;;;;21.71;36.63;100283.06;10250798;28;20224;-66
2023/05/26 14:03:41;;;;;;;6.55;4.40;;;;;;;21.67;36.05;100276.44;10232863;28;20625;-66
2023/05/26 14:08:42;;;;;;;6.00;4.00;;;;;;;21.14;35.89;100283.94;10248507;28;20235;-66
2023/05/26 14:13:44;;;;;;;7.32;4.85;;;;;;;21.84;35.91;100268.28;10235154;28;20235;-66
2023/05/26 14:18:46;;;;;;;5.68;4.10;;;;;;;21.97;35.98;100248.91;10243133;28;20295;-66
2023/05/26 14:24:07;;;;;;;7.22;4.45;;;;;;;22.73;35.67;100233.84;10236240;28;20702;-66
2023/05/26 14:29:09;;;;;;;8.13;4.43;;;;;;;21.73;33.70;100248.25;10247053;28;20247;-66
2023/05/26 14:34:11;;;;;;;5.75;3.90;;;;;;;21.29;33.69;100275.25;10232266;28;20265;-66
2023/05/26 14:39:13;;;;;;;6.82;4.65;;;;;;;22.68;34.05;100220.13;10250129;28;20231;-66
2023/05/26 14:44:15;;;;;;;10.27;4.55;;;;;;;23.20;34.78;100240.63;10232894;28;20242;-66
2023/05/26 14:49:17;;;;;;;7.38;4.47;;;;;;;22.09;34.27;100262.44;10249501;28;20259;-66
2023/05/26 14:54:20;;;;;;;8.65;4.43;;;;;;;22.89;35.59;100240.28;10234985;28;20289;-66
2023/05/26 14:59:21;;;;;;;7.13;4.22;;;;;;;21.48;35.78;100228.78;10244273;28;20228;-66
2023/05/26 15:04:23;;;;;;;6.95;4.63;;;;;;;21.77;35.27;100249.38;10235227;28;20246;-66
2023/05/26 15:09:25;;;;;;;5.50;4.50;;;;;;;23.02;35.09;100188.03;10248010;28;20271;-67
2023/05/26 15:14:27;;;;;;;9.35;5.10;;;;;;;22.81;34.55;100199.84;10230526;28;20239;-67
2023/05/26 15:19:28;;;;;;;6.78;4.38;;;;;;;23.70;35.11;100173.06;10253838;28;20329;-67
2023/05/26 15:24:30;;;;;;;6.65;4.63;;;;;;;23.23;34.68;100191.81;10252110;28;20239;-68
2023/05/26 15:29:32;;;;;;;9.68;4.28;;;;;;;23.27;34.76;100211.22;10244019;28;20244;-67
2023/05/26 15:34:33;;;;;;;7.43;4.28;;;;;;;21.43;35.85;100213.16;10232561;28;20325;-67
2023/05/26 15:39:35;;;;;;;15.68;4.88;;;;;;;21.14;36.77;100253.16;10248030;28;20228;-67
2023/05/26 15:44:37;;;;;;;7.65;4.40;;;;;;;21.85;36.60;100241.88;10248343;28;20400;-68
2023/05/26 15:49:39;;;;;;;7.63;4.60;;;;;;;22.68;35.04;100225.59;10246817;28;20235;-68
2023/05/26 15:54:41;;;;;;;7.00;4.30;;;;;;;22.14;35.14;100197.09;10255684;28;20317;-68
2023/05/26 15:59:42;;;;;;;11.90;4.75;;;;;;;22.31;35.84;100232.47;10261317;28;20327;-68
2023/05/26 16:04:44;;;;;;;7.28;3.97;;;;;;;22.93;35.19;100203.22;10264828;28;20239;-68
2023/05/26 16:09:46;;;;;;;6.75;4.15;;;;;;;22.87;34.79;100190.59;10263508;28;20242;-68
2023/05/26 16:14:47;;;;;;;5.38;3.85;;;;;;;22.05;35.60;100227.75;10260299;28;20250;-68
2023/05/26 16:19:54;;;;;;;8.13;4.13;;;;;;;21.94;36.19;100224.88;10255633;28;20246;-68
2023/05/26 16:24:56;;;;;;;6.78;3.92;;;;;;;21.54;36.16;100225.88;10264244;28;20237;-68
2023/05/26 16:29:57;;;;;;;8.00;5.00;;;;;;;21.92;35.78;100243.34;10264149;28;20326;-68
2023/05/26 16:34:59;;;;;;;8.32;3.83;;;;;;;22.99;34.65;100190.44;10264421;28;20230;-68
2023/05/26 16:40:02;;;;;;;8.68;4.18;;;;;;;22.94;35.18;100185.75;10265577;28;20293;-69
2023/05/26 16:45:04;;;;;;;10.50;3.80;;;;;;;21.94;35.67;100219.44;10264147;28;20923;-68
2023/05/26 16:50:06;;;;;;;6.18;3.53;;;;;;;22.40;35.23;100170.16;10262816;28;20325;-68
2023/05/26 16:55:09;;;;;;;5.32;3.65;;;;;;;22.70;35.02;100175.16;10261419;28;20354;-68
2023/05/26 17:00:11;;;;;;;9.65;3.80;;;;;;;21.14;35.92;100213.19;10262905;28;20238;-68
2023/05/26 17:05:13;;;;;;;7.32;3.50;;;;;;;22.44;35.53;100204.03;10266283;28;20240;-68
2023/05/26 17:10:15;;;;;;;9.98;3.95;;;;;;;21.33;35.90;100256.53;10268661;28;20855;-68
2023/05/26 17:15:17;;;;;;;9.45;3.75;;;;;;;22.28;35.18;100204.91;10266123;28;20231;-68
2023/05/26 17:20:18;;;;;;;8.65;3.97;;;;;;;22.08;35.47;100216.34;10257098;28;20237;-68
2023/05/26 17:25:20;;;;;;;6.43;3.85;;;;;;;22.18;35.39;100232.84;10263154;28;20257;-67
2023/05/26 17:30:22;;;;;;;8.27;3.72;;;;;;;20.89;36.25;100253.53;10265351;28;20731;-68
2023/05/26 17:35:26;;;;;;;6.13;3.42;;;;;;;21.41;35.88;100220.75;10263433;28;20332;-68
2023/05/26 17:40:27;;;;;;;7.95;3.47;;;;;;;21.58;36.15;100267.88;10271727;28;20277;-68
2023/05/26 17:45:30;;;;;;;7.15;3.80;;;;;;;21.28;35.88;100234.66;10265907;28;20230;-68
2023/05/26 17:50:34;;;;;;;8.60;3.78;;;;;;;21.12;36.03;100277.91;10263689;28;20745;-68
2023/05/26 17:55:37;;;;;;;6.25;3.83;;;;;;;20.57;37.10;100284.66;10256465;28;20741;-68
2023/05/26 18:00:39;;;;;;;7.13;3.67;;;;;;;19.39;38.63;100270.97;10258160;28;20257;-67
2023/05/26 18:05:41;;;;;;;8.35;3.63;;;;;;;19.72;38.51;100294.09;10258952;28;20722;-68
2023/05/26 18:10:43;;;;;;;11.05;4.22;;;;;;;19.43;39.50;100322.91;10260238;28;20261;-68
2023/05/26 18:15:44;;;;;;;8.60;3.55;;;;;;;19.71;38.92;100306.03;10266672;28;20353;-68
2023/05/26 18:20:47;;;;;;;8.57;4.03;;;;;;;19.45;39.62;100294.47;10264019;28;21093;-67
2023/05/26 18:25:49;;;;;;;14.10;4.18;;;;;;;19.40;39.88;100302.50;10268619;28;20250;-67
2023/05/26 18:30:51;;;;;;;11.02;4.32;;;;;;;20.63;38.96;100277.44;10258267;28;20234;-68
2023/05/26 18:35:52;;;;;;;10.38;4.25;;;;;;;20.25;39.32;100290.50;10256337;28;20246;-68
2023/05/26 18:40:54;;;;;;;13.93;4.28;;;;;;;19.58;40.08;100315.19;10258192;28;20304;-68
2023/05/26 18:45:56;;;;;;;10.13;4.72;;;;;;;19.88;39.88;100311.59;10263328;28;20235;-68
2023/05/26 18:50:58;;;;;;;8.80;4.28;;;;;;;18.97;40.76;100322.47;10258791;28;20238;-67
2023/05/26 18:56:00;;;;;;;11.10;4.47;;;;;;;18.48;41.28;100295.25;10262640;28;20772;-68
2023/05/26 19:01:02;;;;;;;10.82;4.47;;;;;;;18.09;41.92;100324.34;10255619;28;20234;-67
2023/05/26 19:06:04;;;;;;;11.88;4.50;;;;;;;18.62;41.51;100347.41;10254521;28;20231;-68
2023/05/26 19:11:05;;;;;;;17.20;4.57;;;;;;;18.04;42.09;100349.38;10259358;28;20223;-67
2023/05/26 19:16:07;;;;;;;10.32;4.03;;;;;;;18.16;41.90;100348.69;10260523;28;20292;-67
2023/05/26 19:21:09;;;;;;;10.68;4.47;;;;;;;19.11;41.15;100347.53;10259243;28;20230;-68
2023/05/26 19:26:10;;;;;;;10.98;3.95;;;;;;;18.70;41.20;100351.72;10262809;28;20270;-67
2023/05/26 19:31:14;;;;;;;16.70;4.55;;;;;;;18.27;42.22;100383.16;10265717;28;20359;-68
2023/05/26 19:36:15;;;;;;;12.45;4.35;;;;;;;17.88;42.45;100377.00;10274485;28;20265;-68
2023/05/26 19:41:17;;;;;;;11.57;4.57;;;;;;;18.00;42.61;100391.50;10267064;28;20899;-67
2023/05/26 19:46:19;;;;;;;8.30;4.20;;;;;;;17.46;43.03;100407.19;10266387;28;20234;-68
2023/05/26 19:51:23;;;;;;;10.13;4.65;;;;;;;16.71;44.20;100380.56;10266060;28;20246;-68
2023/05/26 19:56:25;;;;;;;10.60;4.43;;;;;;;16.84;43.99;100404.03;10266623;28;20333;-68
2023/05/26 20:01:27;;;;;;;7.87;4.10;;;;;;;17.04;43.67;100417.53;10260243;28;20333;-68
2023/05/26 20:06:29;;;;;;;9.27;3.67;;;;;;;16.43;43.93;100378.09;10261060;28;20249;-68
2023/05/26 20:11:31;;;;;;;8.23;3.77;;;;;;;16.38;44.37;100418.41;10264660;28;20301;-67
2023/05/26 20:16:32;;;;;;;11.83;4.07;;;;;;;16.56;43.86;100429.41;10263823;28;20231;-67
2023/05/26 20:21:34;;;;;;;11.97;4.53;;;;;;;17.53;43.13;100435.03;10265317;28;20258;-68
2023/05/26 20:26:36;;;;;;;10.63;4.70;;;;;;;16.68;44.14;100464.75;10260337;28;20337;-67
2023/05/26 20:31:37;;;;;;;9.57;4.15;;;;;;;16.44;44.45;100467.03;10260240;28;20280;-68
2023/05/26 20:36:39;;;;;;;14.03;5.13;;;;;;;16.42;44.97;100476.41;10266875;28;20251;-67
2023/05/26 20:41:41;;;;;;;9.07;4.03;;;;;;;16.57;44.35;100482.41;10257302;28;20243;-67
2023/05/26 20:46:43;;;;;;;11.37;3.80;;;;;;;16.22;44.39;100487.97;10263110;28;20263;-68
2023/05/26 20:51:45;;;;;;;10.63;3.87;;;;;;;17.32;43.21;100474.03;10261951;28;20747;-68
2023/05/26 20:56:47;;;;;;;13.30;4.47;;;;;;;16.56;44.21;100505.06;10257947;28;20271;-67
2023/05/26 21:01:49;;;;;;;12.73;5.07;;;;;;;15.36;45.36;100453.41;10260481;28;20694;-67
2023/05/26 21:06:50;;;;;;;8.90;4.60;;;;;;;16.90;44.35;100483.44;10260943;28;20246;-65
2023/05/26 21:11:53;;;;;;;9.03;4.20;;;;;;;16.32;44.01;100498.41;10256229;28;20239;-66
2023/05/26 21:16:54;;;;;;;9.63;4.00;;;;;;;16.14;44.52;100517.84;10260606;28;20730;-65
2023/05/26 21:21:56;;;;;;;12.77;5.27;;;;;;;16.45;44.16;100508.41;10264710;28;20248;-66
2023/05/26 21:26:58;;;;;;;10.30;4.20;;;;;;;15.59;45.06;100520.56;10260141;28;20238;-65
2023/05/26 21:32:00;;;;;;;10.93;4.77;;;;;;;16.19;44.73;100534.25;10258575;28;20254;-65
2023/05/26 21:37:01;;;;;;;10.47;4.63;;;;;;;15.64;45.11;100526.19;10257750;28;20233;-65
2023/05/26 21:42:03;;;;;;;12.90;4.37;;;;;;;15.44;44.65;100517.13;10252698;28;20276;-65
2023/05/26 21:47:05;;;;;;;12.83;4.40;;;;;;;16.93;43.30;100526.28;10256395;28;20260;-65
2023/05/26 21:52:06;;;;;;;12.70;4.63;;;;;;;15.44;44.75;100539.53;10256403;28;20266;-65
2023/05/26 21:57:08;;;;;;;11.03;4.13;;;;;;;15.33;46.01;100558.94;10259966;28;20227;-65
2023/05/26 22:02:10;;;;;;;11.73;4.67;;;;;;;15.19;46.06;100552.63;10262507;28;20238;-64
2023/05/26 22:07:12;;;;;;;10.90;4.70;;;;;;;15.50;44.85;100557.63;10258904;28;20235;-65
2023/05/26 22:12:14;;;;;;;12.10;4.37;;;;;;;15.48;45.18;100551.56;10258743;28;20260;-65
2023/05/26 22:17:16;;;;;;;12.07;4.77;;;;;;;15.33;45.25;100567.91;10260620;28;20238;-65
2023/05/26 22:22:18;;;;;;;13.40;4.33;;;;;;;15.04;46.03;100571.59;10257966;28;20245;-65
2023/05/26 22:27:19;;;;;;;12.13;4.50;;;;;;;15.25;45.63;100589.59;10257295;28;20235;-65
2023/05/26 22:32:21;;;;;;;9.87;4.17;;;;;;;16.54;44.09;100574.69;10258164;28;20681;-65
2023/05/26 22:37:23;;;;;;;9.60;4.07;;;;;;;15.70;45.34;100584.72;10260435;28;20715;-65
2023/05/26 22:42:25;;;;;;;11.13;4.07;;;;;;;15.64;44.90;100590.94;10224806;28;20242;-66
2023/05/26 22:47:27;;;;;;;11.57;4.77;;;;;;;15.28;45.65;100604.53;10215363;28;20249;-65
2023/05/26 22:52:30;;;;;;;12.70;4.50;;;;;;;14.54;45.87;100546.47;10218131;28;20314;-65
2023/05/26 22:57:32;;;;;;;9.37;4.30;;;;;;;14.59;46.60;100600.56;10250531;28;21151;-65
2023/05/26 23:02:33;;;;;;;12.80;4.23;;;;;;;15.35;45.50;100602.72;10260155;28;20648;-66
2023/05/26 23:07:35;;;;;;;12.10;4.33;;;;;;;15.14;45.25;100607.13;10254419;28;20773;-66
2023/05/26 23:12:38;;;;;;;10.57;4.43;;;;;;;14.32;46.21;100578.75;10256498;28;20324;-65